createdAt,value
2019-02-24T00:10:41.764Z,1.14
2019-02-24T00:21:04.188Z,1.00
2019-02-24T00:26:09.424Z,1.04
2019-02-24T00:31:14.665Z,0.83
2019-02-24T00:36:32.006Z,0.82
2019-02-24T00:41:37.619Z,0.97
2019-02-24T00:46:43.203Z,0.95
2019-02-24T00:51:59.655Z,0.92
2019-02-24T00:57:05.251Z,0.69
2019-02-24T01:02:10.569Z,0.68
2019-02-24T01:07:35.389Z,0.69
2019-02-24T01:12:40.745Z,0.59
2019-02-24T01:17:46.225Z,0.49
2019-02-24T01:22:51.500Z,0.22
2019-02-24T01:33:13.702Z,0.42
2019-02-24T01:38:18.909Z,0.42
2019-02-24T01:43:35.954Z,0.30
2019-02-24T01:54:16.904Z,0.35
2019-02-24T01:59:22.268Z,0.17
2019-02-24T02:04:38.860Z,0.06
2019-02-24T02:09:44.230Z,0.11
2019-02-24T02:14:51.058Z,0.07
2019-02-24T02:19:56.252Z,0.12
2019-02-24T02:25:01.453Z,-0.01
2019-02-24T02:35:46.030Z,-0.02
2019-02-24T02:40:51.214Z,-0.05
2019-02-24T02:51:45.594Z,-0.24
2019-02-24T02:56:51.146Z,-0.34
2019-02-24T03:02:08.045Z,-0.32
2019-02-24T03:12:37.325Z,-0.29
2019-02-24T03:18:01.588Z,-0.18
2019-02-24T03:23:08.787Z,-0.25
2019-02-24T03:28:33.071Z,-0.22
2019-02-24T03:39:08.564Z,-0.54
2019-02-24T03:44:14.195Z,-0.45
2019-02-24T03:49:19.410Z,-0.38
2019-02-24T03:59:41.270Z,-0.57
2019-02-24T04:04:46.487Z,-0.46
2019-02-24T04:09:52.096Z,-0.46
2019-02-24T04:14:57.444Z,-0.42
2019-02-24T04:20:02.655Z,-0.44
2019-02-24T04:25:07.891Z,-0.59
2019-02-24T04:35:30.157Z,-0.68
2019-02-24T04:40:35.423Z,-0.68
2019-02-24T04:45:59.545Z,-0.66
2019-02-24T04:51:23.895Z,-0.69
2019-02-24T05:12:20.667Z,-0.71
2019-02-24T05:17:31.761Z,-0.81
2019-02-24T05:22:37.247Z,-0.96
2019-02-24T05:27:42.448Z,-1.07
2019-02-24T05:38:42.772Z,-0.79
2019-02-24T05:49:24.234Z,-0.83
2019-02-24T05:54:29.439Z,-0.71
2019-02-24T05:59:55.001Z,-0.76
2019-02-24T06:04:52.746Z,-1.01
2019-02-24T06:09:57.954Z,-0.90
2019-02-24T06:15:14.875Z,-0.96
2019-02-24T06:25:37.190Z,-0.98
2019-02-24T06:35:58.815Z,-0.73
2019-02-24T06:41:04.182Z,-0.65
2019-02-24T06:51:26.537Z,-0.16
2019-02-24T06:56:31.815Z,0.00
2019-02-24T07:01:56.095Z,0.26
2019-02-24T07:07:03.282Z,0.51
2019-02-24T07:12:08.518Z,0.76
2019-02-24T07:17:13.845Z,0.94
2019-02-24T07:22:19.199Z,0.87
2019-02-24T07:27:35.830Z,1.06
2019-02-24T07:38:17.076Z,1.69
2019-02-24T07:43:34.009Z,2.08
2019-02-24T07:48:39.245Z,2.57
2019-02-24T07:59:14.336Z,3.21
2019-02-24T08:09:49.210Z,3.68
2019-02-24T08:21:02.345Z,4.02
2019-02-24T08:26:36.892Z,4.27
2019-02-24T08:31:42.130Z,4.51
2019-02-24T08:36:47.451Z,4.68
2019-02-24T08:41:52.712Z,4.93
2019-02-24T08:46:57.973Z,5.15
2019-02-24T08:52:03.475Z,5.22
2019-02-24T08:57:08.849Z,5.42
2019-02-24T09:02:14.188Z,5.42
2019-02-24T09:07:19.657Z,5.67
2019-02-24T09:12:24.995Z,5.60
2019-02-24T09:17:30.239Z,5.85
2019-02-24T09:22:35.815Z,5.99
2019-02-24T09:27:41.189Z,6.24
2019-02-24T09:32:46.524Z,6.44
2019-02-24T09:37:51.911Z,6.61
2019-02-24T09:42:57.322Z,7.01
2019-02-24T09:48:02.738Z,7.27
2019-02-24T09:58:24.933Z,7.41
2019-02-24T10:03:30.153Z,7.78
2019-02-24T10:14:11.464Z,7.96
2019-02-24T10:19:16.697Z,8.48
2019-02-24T10:24:21.996Z,8.77
2019-02-24T10:29:46.469Z,8.88
2019-02-24T10:35:06.440Z,9.07
2019-02-24T10:40:23.652Z,8.90
2019-02-24T10:45:28.861Z,9.31
2019-02-24T10:50:34.063Z,9.66
2019-02-24T10:55:39.647Z,9.73
2019-02-24T11:00:44.954Z,10.41
2019-02-24T11:05:50.285Z,10.23
2019-02-24T11:10:55.548Z,9.99
2019-02-24T11:26:53.161Z,11.05
2019-02-24T11:32:10.350Z,11.28
2019-02-24T11:37:32.420Z,11.39
2019-02-24T11:43:17.511Z,11.80
2019-02-24T11:48:42.190Z,11.89
2019-02-24T11:53:48.533Z,12.20
2019-02-24T11:58:55.817Z,12.80
2019-02-24T12:04:20.545Z,13.08
2019-02-24T12:09:47.063Z,12.50
2019-02-24T12:26:38.250Z,14.02
2019-02-24T12:31:45.440Z,14.80
2019-02-24T12:37:09.638Z,14.81
2019-02-24T12:42:33.972Z,14.35
2019-02-24T12:47:58.227Z,14.84
2019-02-24T12:53:04.210Z,15.16
2019-02-24T12:58:09.438Z,15.31
2019-02-24T13:03:23.603Z,15.94
2019-02-24T13:08:41.183Z,16.20
2019-02-24T13:13:46.763Z,16.28
2019-02-24T13:30:09.274Z,14.89
2019-02-24T13:35:33.656Z,14.50
2019-02-24T13:40:50.298Z,14.11
2019-02-24T13:46:07.006Z,14.07
2019-02-24T13:51:12.591Z,13.33
2019-02-24T13:56:38.245Z,13.00
2019-02-24T14:01:44.581Z,13.12
2019-02-24T14:06:49.849Z,13.17
2019-02-24T14:12:14.150Z,13.02
2019-02-24T14:17:20.238Z,13.00
2019-02-24T14:27:55.635Z,12.77
2019-02-24T14:33:00.862Z,12.69
2019-02-24T14:38:06.293Z,12.59
2019-02-24T14:43:13.226Z,12.82
2019-02-24T14:53:53.961Z,12.59
2019-02-24T14:58:59.323Z,12.53
2019-02-24T15:04:04.602Z,12.62
2019-02-24T15:09:28.862Z,12.54
2019-02-24T15:19:51.105Z,12.42
2019-02-24T15:36:10.066Z,12.39
2019-02-24T15:41:29.799Z,12.36
2019-02-24T15:46:34.594Z,12.35
2019-02-24T15:51:39.912Z,12.20
2019-02-24T15:56:45.121Z,12.09
2019-02-24T16:01:50.381Z,12.01
2019-02-24T16:07:07.578Z,11.83
2019-02-24T16:12:12.778Z,11.84
2019-02-24T16:17:18.115Z,11.53
2019-02-24T16:22:24.936Z,11.40
2019-02-24T16:27:30.162Z,11.21
2019-02-24T16:32:35.367Z,11.11
2019-02-24T16:37:40.621Z,11.01
2019-02-24T16:42:58.077Z,10.87
2019-02-24T16:48:03.674Z,10.65
2019-02-24T16:53:20.281Z,10.49
2019-02-24T16:58:25.488Z,10.28
2019-02-24T17:03:30.706Z,10.19
2019-02-24T17:09:00.554Z,9.92
2019-02-24T17:14:41.869Z,9.40
2019-02-24T17:20:06.568Z,9.18
2019-02-24T17:25:23.690Z,8.76
2019-02-24T17:30:47.916Z,8.58
2019-02-24T17:35:53.187Z,8.40
2019-02-24T17:40:58.448Z,8.22
2019-02-24T17:51:21.479Z,7.86
2019-02-24T17:56:32.970Z,7.79
2019-02-24T18:01:38.377Z,7.52
2019-02-24T18:12:00.324Z,7.20
2019-02-24T18:17:19.278Z,7.17
2019-02-24T18:22:44.139Z,7.01
2019-02-24T18:28:08.462Z,6.78
2019-02-24T18:38:38.929Z,6.13
2019-02-24T18:43:44.504Z,6.02
2019-02-24T18:59:42.029Z,5.72
2019-02-24T19:04:47.228Z,5.76
2019-02-24T19:15:28.683Z,5.50
2019-02-24T19:20:52.958Z,5.35
2019-02-24T19:25:58.169Z,5.20
2019-02-24T19:31:03.623Z,5.24
2019-02-24T19:36:08.834Z,4.80
2019-02-24T19:41:14.060Z,4.86
2019-02-24T19:46:19.272Z,4.52
2019-02-24T19:51:36.612Z,4.35
2019-02-24T19:56:53.097Z,4.20
2019-02-24T20:01:58.289Z,4.15
2019-02-24T20:12:39.394Z,4.02
2019-02-24T20:17:44.888Z,3.82
2019-02-24T20:28:19.684Z,4.13
2019-02-24T20:33:25.026Z,3.86
2019-02-24T20:38:30.320Z,3.57
2019-02-24T20:43:35.523Z,3.59
2019-02-24T20:54:18.069Z,3.40
2019-02-24T20:59:42.337Z,3.37
2019-02-24T21:15:41.608Z,3.13
2019-02-24T21:20:46.819Z,3.20
2019-02-24T21:25:52.041Z,3.09
2019-02-24T21:30:57.371Z,2.95
2019-02-24T21:36:02.654Z,2.75
2019-02-24T21:41:08.804Z,2.55
2019-02-24T21:46:14.033Z,2.45
2019-02-24T21:57:07.644Z,2.37
2019-02-24T22:02:24.546Z,2.37
2019-02-24T22:07:49.470Z,2.34
2019-02-24T22:18:25.016Z,2.46
2019-02-24T22:23:49.303Z,2.43
2019-02-24T22:29:13.508Z,2.33
2019-02-24T22:34:25.416Z,2.27
2019-02-24T22:39:41.925Z,2.12
2019-02-24T22:50:43.817Z,1.67
2019-02-24T22:56:00.613Z,1.61
2019-02-24T23:01:47.068Z,1.71
2019-02-24T23:06:52.874Z,1.73
2019-02-24T23:11:58.241Z,1.70
2019-02-24T23:22:33.045Z,1.55
2019-02-24T23:27:39.417Z,1.59
2019-02-24T23:32:44.666Z,1.50
2019-02-24T23:38:00.776Z,1.66
2019-02-24T23:43:06.048Z,1.70
2019-02-24T23:48:11.646Z,1.51
